sensor_id;sensor_type;location;lat;lon;timestamp;P1;durP1;ratioP1;P2;durP2;ratioP2
75297;SDS011;63896;45.990;18.688;2023-06-24T00:01:10;7.13;;;3.40;;
75297;SDS011;63896;45.990;18.688;2023-06-24T00:04:15;8.30;;;3.53;;
75297;SDS011;63896;45.990;18.688;2023-06-24T00:07:21;6.80;;;3.63;;
75297;SDS011;63896;45.990;18.688;2023-06-24T00:10:25;9.13;;;4.53;;
75297;SDS011;63896;45.990;18.688;2023-06-24T00:13:28;7.35;;;4.43;;
75297;SDS011;63896;45.990;18.688;2023-06-24T00:16:31;10.25;;;4.38;;
75297;SDS011;63896;45.990;18.688;2023-06-24T00:19:34;9.30;;;4.40;;
75297;SDS011;63896;45.990;18.688;2023-06-24T00:22:37;6.13;;;4.20;;
75297;SDS011;63896;45.990;18.688;2023-06-24T00:25:46;6.70;;;4.20;;
75297;SDS011;63896;45.990;18.688;2023-06-24T00:28:49;6.35;;;4.43;;
75297;SDS011;63896;45.990;18.688;2023-06-24T00:31:52;9.65;;;4.13;;
75297;SDS011;63896;45.990;18.688;2023-06-24T00:34:55;6.33;;;4.40;;
75297;SDS011;63896;45.990;18.688;2023-06-24T00:38:02;6.22;;;4.43;;
75297;SDS011;63896;45.990;18.688;2023-06-24T00:41:06;7.55;;;4.00;;
75297;SDS011;63896;45.990;18.688;2023-06-24T00:44:10;7.05;;;4.45;;
75297;SDS011;63896;45.990;18.688;2023-06-24T00:47:13;7.18;;;4.38;;
75297;SDS011;63896;45.990;18.688;2023-06-24T00:50:15;6.90;;;4.33;;
75297;SDS011;63896;45.990;18.688;2023-06-24T00:53:18;9.93;;;4.63;;
75297;SDS011;63896;45.990;18.688;2023-06-24T00:56:21;6.78;;;4.63;;
75297;SDS011;63896;45.990;18.688;2023-06-24T00:59:26;13.00;;;4.28;;
75297;SDS011;63896;45.990;18.688;2023-06-24T01:02:35;8.55;;;4.60;;
75297;SDS011;63896;45.990;18.688;2023-06-24T01:05:48;7.67;;;4.70;;
75297;SDS011;63896;45.990;18.688;2023-06-24T01:08:51;6.75;;;5.03;;
75297;SDS011;63896;45.990;18.688;2023-06-24T01:11:58;14.70;;;5.07;;
75297;SDS011;63896;45.990;18.688;2023-06-24T01:15:01;7.53;;;5.10;;
75297;SDS011;63896;45.990;18.688;2023-06-24T01:35:17;9.88;;;5.43;;
75297;SDS011;63896;45.990;18.688;2023-06-24T01:38:31;8.33;;;5.00;;
75297;SDS011;63896;45.990;18.688;2023-06-24T01:41:43;8.88;;;4.97;;
75297;SDS011;63896;45.990;18.688;2023-06-24T01:44:49;10.70;;;5.45;;
75297;SDS011;63896;45.990;18.688;2023-06-24T01:47:59;6.90;;;5.43;;
75297;SDS011;63896;45.990;18.688;2023-06-24T01:51:12;8.32;;;5.65;;
75297;SDS011;63896;45.990;18.688;2023-06-24T01:54:17;9.50;;;5.63;;
75297;SDS011;63896;45.990;18.688;2023-06-24T01:57:22;8.45;;;4.82;;
75297;SDS011;63896;45.990;18.688;2023-06-24T02:00:27;10.70;;;5.78;;
75297;SDS011;63896;45.990;18.688;2023-06-24T02:03:32;11.18;;;5.80;;
75297;SDS011;63896;45.990;18.688;2023-06-24T02:06:38;12.23;;;6.00;;
75297;SDS011;63896;45.990;18.688;2023-06-24T02:09:42;8.23;;;5.83;;
75297;SDS011;63896;45.990;18.688;2023-06-24T02:12:48;9.30;;;6.15;;
75297;SDS011;63896;45.990;18.688;2023-06-24T02:15:55;11.68;;;6.18;;
75297;SDS011;63896;45.990;18.688;2023-06-24T02:18:58;10.65;;;5.97;;
75297;SDS011;63896;45.990;18.688;2023-06-24T02:22:04;13.00;;;6.80;;
75297;SDS011;63896;45.990;18.688;2023-06-24T02:25:12;9.07;;;6.03;;
75297;SDS011;63896;45.990;18.688;2023-06-24T02:28:15;8.48;;;6.10;;
75297;SDS011;63896;45.990;18.688;2023-06-24T02:31:19;8.52;;;5.97;;
75297;SDS011;63896;45.990;18.688;2023-06-24T02:34:23;9.82;;;6.40;;
75297;SDS011;63896;45.990;18.688;2023-06-24T02:37:26;9.77;;;7.35;;
75297;SDS011;63896;45.990;18.688;2023-06-24T02:40:29;14.23;;;7.70;;
75297;SDS011;63896;45.990;18.688;2023-06-24T02:43:32;12.18;;;8.00;;
75297;SDS011;63896;45.990;18.688;2023-06-24T02:46:35;12.45;;;8.07;;
75297;SDS011;63896;45.990;18.688;2023-06-24T02:49:39;16.75;;;9.15;;
75297;SDS011;63896;45.990;18.688;2023-06-24T02:52:42;13.18;;;8.65;;
75297;SDS011;63896;45.990;18.688;2023-06-24T02:55:47;15.33;;;7.57;;
75297;SDS011;63896;45.990;18.688;2023-06-24T02:58:51;14.02;;;8.05;;
75297;SDS011;63896;45.990;18.688;2023-06-24T03:01:59;14.70;;;8.18;;
75297;SDS011;63896;45.990;18.688;2023-06-24T03:05:02;16.50;;;8.20;;
75297;SDS011;63896;45.990;18.688;2023-06-24T03:08:06;11.93;;;7.68;;
75297;SDS011;63896;45.990;18.688;2023-06-24T03:11:14;16.63;;;8.07;;
75297;SDS011;63896;45.990;18.688;2023-06-24T03:14:18;13.23;;;8.07;;
75297;SDS011;63896;45.990;18.688;2023-06-24T03:17:21;14.10;;;7.93;;
75297;SDS011;63896;45.990;18.688;2023-06-24T03:20:25;12.23;;;7.70;;
75297;SDS011;63896;45.990;18.688;2023-06-24T03:23:30;13.70;;;7.60;;
75297;SDS011;63896;45.990;18.688;2023-06-24T03:26:39;10.83;;;7.63;;
75297;SDS011;63896;45.990;18.688;2023-06-24T03:29:45;11.65;;;7.95;;
75297;SDS011;63896;45.990;18.688;2023-06-24T03:32:48;12.88;;;7.75;;
75297;SDS011;63896;45.990;18.688;2023-06-24T03:35:52;11.23;;;7.35;;
75297;SDS011;63896;45.990;18.688;2023-06-24T03:39:00;10.93;;;7.63;;
75297;SDS011;63896;45.990;18.688;2023-06-24T03:42:03;14.43;;;7.43;;
75297;SDS011;63896;45.990;18.688;2023-06-24T03:45:07;10.45;;;7.53;;
75297;SDS011;63896;45.990;18.688;2023-06-24T03:48:10;11.20;;;7.53;;
75297;SDS011;63896;45.990;18.688;2023-06-24T03:51:13;14.20;;;7.93;;
75297;SDS011;63896;45.990;18.688;2023-06-24T03:54:17;21.90;;;8.85;;
75297;SDS011;63896;45.990;18.688;2023-06-24T03:57:19;12.30;;;8.10;;
75297;SDS011;63896;45.990;18.688;2023-06-24T04:00:23;11.60;;;8.15;;
75297;SDS011;63896;45.990;18.688;2023-06-24T04:03:26;19.58;;;7.93;;
75297;SDS011;63896;45.990;18.688;2023-06-24T04:06:29;12.57;;;7.90;;
75297;SDS011;63896;45.990;18.688;2023-06-24T04:09:33;9.70;;;7.35;;
75297;SDS011;63896;45.990;18.688;2023-06-24T04:12:36;11.27;;;6.73;;
75297;SDS011;63896;45.990;18.688;2023-06-24T04:15:39;13.40;;;7.20;;
75297;SDS011;63896;45.990;18.688;2023-06-24T04:18:41;11.50;;;6.57;;
75297;SDS011;63896;45.990;18.688;2023-06-24T04:21:44;14.82;;;6.38;;
75297;SDS011;63896;45.990;18.688;2023-06-24T04:24:47;10.57;;;6.72;;
75297;SDS011;63896;45.990;18.688;2023-06-24T04:27:50;11.20;;;6.90;;
75297;SDS011;63896;45.990;18.688;2023-06-24T04:30:53;9.30;;;6.00;;
75297;SDS011;63896;45.990;18.688;2023-06-24T04:33:56;9.48;;;6.68;;
75297;SDS011;63896;45.990;18.688;2023-06-24T04:36:59;10.85;;;6.40;;
75297;SDS011;63896;45.990;18.688;2023-06-24T04:40:02;9.57;;;5.97;;
75297;SDS011;63896;45.990;18.688;2023-06-24T04:43:05;10.50;;;5.63;;
75297;SDS011;63896;45.990;18.688;2023-06-24T04:46:08;8.68;;;5.47;;
75297;SDS011;63896;45.990;18.688;2023-06-24T04:49:11;7.60;;;5.43;;
75297;SDS011;63896;45.990;18.688;2023-06-24T04:52:14;8.32;;;5.60;;
75297;SDS011;63896;45.990;18.688;2023-06-24T04:55:17;7.88;;;5.25;;
75297;SDS011;63896;45.990;18.688;2023-06-24T04:58:20;9.37;;;5.17;;
75297;SDS011;63896;45.990;18.688;2023-06-24T05:01:23;7.35;;;4.78;;
75297;SDS011;63896;45.990;18.688;2023-06-24T05:04:25;8.68;;;5.47;;
75297;SDS011;63896;45.990;18.688;2023-06-24T05:07:29;8.63;;;4.72;;
75297;SDS011;63896;45.990;18.688;2023-06-24T05:10:32;10.63;;;5.22;;
75297;SDS011;63896;45.990;18.688;2023-06-24T05:13:35;6.17;;;4.57;;
75297;SDS011;63896;45.990;18.688;2023-06-24T05:16:38;4.95;;;4.32;;
75297;SDS011;63896;45.990;18.688;2023-06-24T05:19:40;6.47;;;3.80;;
75297;SDS011;63896;45.990;18.688;2023-06-24T05:22:43;5.70;;;3.80;;
75297;SDS011;63896;45.990;18.688;2023-06-24T05:25:46;5.10;;;3.65;;
75297;SDS011;63896;45.990;18.688;2023-06-24T05:28:49;6.57;;;3.40;;
75297;SDS011;63896;45.990;18.688;2023-06-24T05:31:52;5.95;;;3.25;;
75297;SDS011;63896;45.990;18.688;2023-06-24T05:34:54;5.55;;;3.00;;
75297;SDS011;63896;45.990;18.688;2023-06-24T05:37:57;8.98;;;3.00;;
75297;SDS011;63896;45.990;18.688;2023-06-24T05:41:00;5.72;;;3.00;;
75297;SDS011;63896;45.990;18.688;2023-06-24T05:44:06;6.60;;;2.40;;
75297;SDS011;63896;45.990;18.688;2023-06-24T05:47:10;3.78;;;2.33;;
75297;SDS011;63896;45.990;18.688;2023-06-24T05:50:12;3.45;;;2.10;;
75297;SDS011;63896;45.990;18.688;2023-06-24T05:53:15;6.18;;;2.45;;
75297;SDS011;63896;45.990;18.688;2023-06-24T05:56:19;3.03;;;2.40;;
75297;SDS011;63896;45.990;18.688;2023-06-24T05:59:22;4.00;;;2.03;;
75297;SDS011;63896;45.990;18.688;2023-06-24T06:02:25;4.63;;;1.95;;
75297;SDS011;63896;45.990;18.688;2023-06-24T06:05:29;2.92;;;1.52;;
75297;SDS011;63896;45.990;18.688;2023-06-24T06:08:32;4.45;;;1.50;;
75297;SDS011;63896;45.990;18.688;2023-06-24T06:11:35;2.13;;;1.30;;
75297;SDS011;63896;45.990;18.688;2023-06-24T06:14:38;1.47;;;1.23;;
75297;SDS011;63896;45.990;18.688;2023-06-24T06:17:40;2.08;;;1.48;;
75297;SDS011;63896;45.990;18.688;2023-06-24T06:20:43;3.67;;;1.20;;
75297;SDS011;63896;45.990;18.688;2023-06-24T06:23:46;1.35;;;0.98;;
75297;SDS011;63896;45.990;18.688;2023-06-24T06:26:48;2.42;;;1.27;;
75297;SDS011;63896;45.990;18.688;2023-06-24T06:29:51;0.73;;;0.70;;
75297;SDS011;63896;45.990;18.688;2023-06-24T06:32:54;1.65;;;0.80;;
75297;SDS011;63896;45.990;18.688;2023-06-24T06:35:57;0.80;;;0.55;;
75297;SDS011;63896;45.990;18.688;2023-06-24T06:39:00;2.00;;;0.60;;
75297;SDS011;63896;45.990;18.688;2023-06-24T06:42:02;2.45;;;0.80;;
75297;SDS011;63896;45.990;18.688;2023-06-24T06:45:05;3.20;;;0.60;;
75297;SDS011;63896;45.990;18.688;2023-06-24T06:48:08;1.10;;;0.60;;
75297;SDS011;63896;45.990;18.688;2023-06-24T06:51:12;0.90;;;0.60;;
75297;SDS011;63896;45.990;18.688;2023-06-24T06:54:15;0.93;;;0.70;;
75297;SDS011;63896;45.990;18.688;2023-06-24T06:57:20;2.13;;;0.75;;
75297;SDS011;63896;45.990;18.688;2023-06-24T07:00:23;0.70;;;0.47;;
75297;SDS011;63896;45.990;18.688;2023-06-24T07:03:26;0.70;;;0.50;;
75297;SDS011;63896;45.990;18.688;2023-06-24T07:06:30;3.25;;;0.60;;
75297;SDS011;63896;45.990;18.688;2023-06-24T07:09:34;3.08;;;0.90;;
75297;SDS011;63896;45.990;18.688;2023-06-24T07:12:37;0.85;;;0.65;;
75297;SDS011;63896;45.990;18.688;2023-06-24T07:15:41;1.40;;;0.70;;
75297;SDS011;63896;45.990;18.688;2023-06-24T07:18:44;3.03;;;0.80;;
75297;SDS011;63896;45.990;18.688;2023-06-24T07:21:46;1.98;;;0.60;;
75297;SDS011;63896;45.990;18.688;2023-06-24T07:24:49;3.78;;;0.60;;
75297;SDS011;63896;45.990;18.688;2023-06-24T07:27:52;2.10;;;0.80;;
75297;SDS011;63896;45.990;18.688;2023-06-24T07:30:55;1.30;;;0.70;;
75297;SDS011;63896;45.990;18.688;2023-06-24T07:33:57;1.05;;;0.70;;
75297;SDS011;63896;45.990;18.688;2023-06-24T07:37:00;0.82;;;0.80;;
75297;SDS011;63896;45.990;18.688;2023-06-24T07:40:23;1.00;;;0.47;;
75297;SDS011;63896;45.990;18.688;2023-06-24T07:43:26;2.42;;;0.73;;
75297;SDS011;63896;45.990;18.688;2023-06-24T07:46:29;1.07;;;0.70;;
75297;SDS011;63896;45.990;18.688;2023-06-24T07:49:32;2.65;;;0.75;;
75297;SDS011;63896;45.990;18.688;2023-06-24T07:52:35;1.77;;;0.80;;
75297;SDS011;63896;45.990;18.688;2023-06-24T07:55:38;3.67;;;0.85;;
75297;SDS011;63896;45.990;18.688;2023-06-24T07:58:41;1.90;;;0.50;;
75297;SDS011;63896;45.990;18.688;2023-06-24T08:01:43;1.73;;;0.77;;
75297;SDS011;63896;45.990;18.688;2023-06-24T08:04:46;1.00;;;0.50;;
75297;SDS011;63896;45.990;18.688;2023-06-24T08:07:50;0.75;;;0.60;;
75297;SDS011;63896;45.990;18.688;2023-06-24T08:10:54;1.05;;;0.65;;
75297;SDS011;63896;45.990;18.688;2023-06-24T08:13:57;2.67;;;0.65;;
75297;SDS011;63896;45.990;18.688;2023-06-24T08:17:00;0.40;;;0.40;;
75297;SDS011;63896;45.990;18.688;2023-06-24T08:20:02;1.15;;;0.35;;
75297;SDS011;63896;45.990;18.688;2023-06-24T08:23:06;6.18;;;0.60;;
75297;SDS011;63896;45.990;18.688;2023-06-24T08:26:09;1.65;;;0.73;;
75297;SDS011;63896;45.990;18.688;2023-06-24T08:29:18;1.63;;;0.60;;
75297;SDS011;63896;45.990;18.688;2023-06-24T08:32:21;1.50;;;0.40;;
75297;SDS011;63896;45.990;18.688;2023-06-24T08:35:24;2.42;;;0.50;;
75297;SDS011;63896;45.990;18.688;2023-06-24T08:38:27;0.82;;;0.52;;
75297;SDS011;63896;45.990;18.688;2023-06-24T08:41:30;5.85;;;1.00;;
75297;SDS011;63896;45.990;18.688;2023-06-24T08:44:33;1.80;;;0.90;;
75297;SDS011;63896;45.990;18.688;2023-06-24T08:47:35;0.80;;;0.73;;
75297;SDS011;63896;45.990;18.688;2023-06-24T08:50:43;2.58;;;0.68;;
75297;SDS011;63896;45.990;18.688;2023-06-24T08:53:48;1.52;;;0.60;;
75297;SDS011;63896;45.990;18.688;2023-06-24T08:56:52;2.85;;;0.47;;
75297;SDS011;63896;45.990;18.688;2023-06-24T08:59:55;1.25;;;0.52;;
75297;SDS011;63896;45.990;18.688;2023-06-24T09:02:59;6.40;;;0.53;;
75297;SDS011;63896;45.990;18.688;2023-06-24T09:06:02;1.15;;;0.70;;
75297;SDS011;63896;45.990;18.688;2023-06-24T09:09:04;3.97;;;0.68;;
75297;SDS011;63896;45.990;18.688;2023-06-24T09:12:19;1.60;;;0.40;;
75297;SDS011;63896;45.990;18.688;2023-06-24T09:15:21;0.85;;;0.50;;
75297;SDS011;63896;45.990;18.688;2023-06-24T09:18:30;2.23;;;0.40;;
75297;SDS011;63896;45.990;18.688;2023-06-24T09:21:34;2.35;;;0.35;;
75297;SDS011;63896;45.990;18.688;2023-06-24T09:24:37;0.95;;;0.47;;
75297;SDS011;63896;45.990;18.688;2023-06-24T09:27:40;1.50;;;0.40;;
75297;SDS011;63896;45.990;18.688;2023-06-24T09:31:03;3.03;;;0.60;;
75297;SDS011;63896;45.990;18.688;2023-06-24T09:34:20;1.90;;;0.57;;
75297;SDS011;63896;45.990;18.688;2023-06-24T09:37:23;1.52;;;0.40;;
75297;SDS011;63896;45.990;18.688;2023-06-24T09:40:29;1.85;;;0.30;;
75297;SDS011;63896;45.990;18.688;2023-06-24T09:43:38;2.28;;;0.60;;
75297;SDS011;63896;45.990;18.688;2023-06-24T09:46:45;1.30;;;0.50;;
75297;SDS011;63896;45.990;18.688;2023-06-24T09:49:48;3.60;;;0.53;;
75297;SDS011;63896;45.990;18.688;2023-06-24T09:52:51;1.20;;;0.57;;
75297;SDS011;63896;45.990;18.688;2023-06-24T09:55:55;1.65;;;0.70;;
75297;SDS011;63896;45.990;18.688;2023-06-24T09:58:58;1.00;;;0.60;;
75297;SDS011;63896;45.990;18.688;2023-06-24T10:02:02;5.22;;;0.70;;
75297;SDS011;63896;45.990;18.688;2023-06-24T10:05:05;0.87;;;0.80;;
75297;SDS011;63896;45.990;18.688;2023-06-24T10:08:09;1.77;;;0.90;;
75297;SDS011;63896;45.990;18.688;2023-06-24T10:11:13;3.08;;;1.02;;
75297;SDS011;63896;45.990;18.688;2023-06-24T10:14:15;3.33;;;1.23;;
75297;SDS011;63896;45.990;18.688;2023-06-24T10:17:19;2.95;;;1.27;;
75297;SDS011;63896;45.990;18.688;2023-06-24T10:20:25;0.83;;;0.83;;
75297;SDS011;63896;45.990;18.688;2023-06-24T10:23:33;1.02;;;0.90;;
75297;SDS011;63896;45.990;18.688;2023-06-24T10:26:41;3.25;;;0.75;;
75297;SDS011;63896;45.990;18.688;2023-06-24T10:29:44;1.17;;;1.00;;
75297;SDS011;63896;45.990;18.688;2023-06-24T10:32:52;1.55;;;1.00;;
75297;SDS011;63896;45.990;18.688;2023-06-24T10:35:58;1.60;;;0.80;;
75297;SDS011;63896;45.990;18.688;2023-06-24T10:39:02;3.47;;;0.82;;
75297;SDS011;63896;45.990;18.688;2023-06-24T10:45:36;1.48;;;0.90;;
75297;SDS011;63896;45.990;18.688;2023-06-24T10:48:39;2.50;;;1.10;;
75297;SDS011;63896;45.990;18.688;2023-06-24T10:51:42;2.20;;;1.00;;
75297;SDS011;63896;45.990;18.688;2023-06-24T10:54:45;1.00;;;0.60;;
75297;SDS011;63896;45.990;18.688;2023-06-24T10:57:48;3.15;;;1.02;;
75297;SDS011;63896;45.990;18.688;2023-06-24T11:00:51;3.35;;;1.00;;
75297;SDS011;63896;45.990;18.688;2023-06-24T11:03:54;1.27;;;0.60;;
75297;SDS011;63896;45.990;18.688;2023-06-24T11:06:58;2.73;;;0.53;;
75297;SDS011;63896;45.990;18.688;2023-06-24T11:10:02;1.55;;;0.85;;
75297;SDS011;63896;45.990;18.688;2023-06-24T11:13:08;2.90;;;0.82;;
75297;SDS011;63896;45.990;18.688;2023-06-24T11:16:11;0.93;;;0.60;;
75297;SDS011;63896;45.990;18.688;2023-06-24T11:19:14;2.40;;;0.70;;
75297;SDS011;63896;45.990;18.688;2023-06-24T11:22:17;2.33;;;0.90;;
75297;SDS011;63896;45.990;18.688;2023-06-24T11:25:23;1.88;;;0.88;;
75297;SDS011;63896;45.990;18.688;2023-06-24T11:28:26;1.00;;;1.00;;
75297;SDS011;63896;45.990;18.688;2023-06-24T11:31:30;2.80;;;0.93;;
75297;SDS011;63896;45.990;18.688;2023-06-24T11:34:35;1.58;;;1.08;;
75297;SDS011;63896;45.990;18.688;2023-06-24T11:37:43;1.53;;;0.83;;
75297;SDS011;63896;45.990;18.688;2023-06-24T11:40:48;1.48;;;1.33;;
75297;SDS011;63896;45.990;18.688;2023-06-24T11:43:51;1.50;;;0.90;;
75297;SDS011;63896;45.990;18.688;2023-06-24T11:46:54;1.48;;;0.40;;
75297;SDS011;63896;45.990;18.688;2023-06-24T11:50:07;1.67;;;0.63;;
75297;SDS011;63896;45.990;18.688;2023-06-24T11:53:11;0.60;;;0.60;;
75297;SDS011;63896;45.990;18.688;2023-06-24T11:56:13;0.95;;;0.93;;
75297;SDS011;63896;45.990;18.688;2023-06-24T11:59:17;0.50;;;0.50;;
75297;SDS011;63896;45.990;18.688;2023-06-24T12:02:24;1.85;;;0.63;;
75297;SDS011;63896;45.990;18.688;2023-06-24T12:05:27;0.73;;;0.73;;
75297;SDS011;63896;45.990;18.688;2023-06-24T12:08:31;0.87;;;0.53;;
75297;SDS011;63896;45.990;18.688;2023-06-24T12:11:53;0.90;;;0.50;;
75297;SDS011;63896;45.990;18.688;2023-06-24T12:14:55;1.35;;;0.70;;
75297;SDS011;63896;45.990;18.688;2023-06-24T12:17:58;1.13;;;0.65;;
75297;SDS011;63896;45.990;18.688;2023-06-24T12:21:02;2.05;;;0.70;;
75297;SDS011;63896;45.990;18.688;2023-06-24T12:24:05;1.23;;;0.73;;
75297;SDS011;63896;45.990;18.688;2023-06-24T12:27:08;2.28;;;0.70;;
75297;SDS011;63896;45.990;18.688;2023-06-24T12:30:11;1.90;;;0.60;;
75297;SDS011;63896;45.990;18.688;2023-06-24T12:33:14;1.40;;;0.70;;
75297;SDS011;63896;45.990;18.688;2023-06-24T12:36:21;1.17;;;0.60;;
75297;SDS011;63896;45.990;18.688;2023-06-24T12:39:24;1.03;;;0.60;;
75297;SDS011;63896;45.990;18.688;2023-06-24T12:42:27;0.47;;;0.47;;
75297;SDS011;63896;45.990;18.688;2023-06-24T12:45:30;0.50;;;0.40;;
75297;SDS011;63896;45.990;18.688;2023-06-24T12:48:33;0.65;;;0.60;;
75297;SDS011;63896;45.990;18.688;2023-06-24T12:51:35;0.40;;;0.40;;
75297;SDS011;63896;45.990;18.688;2023-06-24T12:54:38;0.57;;;0.57;;
75297;SDS011;63896;45.990;18.688;2023-06-24T12:57:41;1.85;;;0.40;;
75297;SDS011;63896;45.990;18.688;2023-06-24T13:00:44;0.73;;;0.70;;
75297;SDS011;63896;45.990;18.688;2023-06-24T13:03:47;1.98;;;0.80;;
75297;SDS011;63896;45.990;18.688;2023-06-24T13:06:53;1.70;;;0.60;;
75297;SDS011;63896;45.990;18.688;2023-06-24T13:09:56;1.20;;;0.50;;
75297;SDS011;63896;45.990;18.688;2023-06-24T13:13:02;2.97;;;0.80;;
75297;SDS011;63896;45.990;18.688;2023-06-24T13:16:05;0.60;;;0.60;;
75297;SDS011;63896;45.990;18.688;2023-06-24T13:19:07;0.50;;;0.50;;
75297;SDS011;63896;45.990;18.688;2023-06-24T13:22:10;1.35;;;0.70;;
75297;SDS011;63896;45.990;18.688;2023-06-24T13:25:14;0.50;;;0.50;;
75297;SDS011;63896;45.990;18.688;2023-06-24T13:28:18;0.73;;;0.38;;
75297;SDS011;63896;45.990;18.688;2023-06-24T13:31:20;0.55;;;0.40;;
75297;SDS011;63896;45.990;18.688;2023-06-24T13:34:23;0.57;;;0.50;;
75297;SDS011;63896;45.990;18.688;2023-06-24T13:37:26;2.15;;;0.63;;
75297;SDS011;63896;45.990;18.688;2023-06-24T13:40:29;0.97;;;0.40;;
75297;SDS011;63896;45.990;18.688;2023-06-24T13:43:31;0.50;;;0.50;;
75297;SDS011;63896;45.990;18.688;2023-06-24T13:46:34;4.13;;;0.55;;
75297;SDS011;63896;45.990;18.688;2023-06-24T13:49:37;0.82;;;0.50;;
75297;SDS011;63896;45.990;18.688;2023-06-24T13:52:40;0.50;;;0.50;;
75297;SDS011;63896;45.990;18.688;2023-06-24T13:55:42;1.47;;;0.70;;
75297;SDS011;63896;45.990;18.688;2023-06-24T13:58:46;1.20;;;0.55;;
75297;SDS011;63896;45.990;18.688;2023-06-24T14:01:49;0.68;;;0.60;;
75297;SDS011;63896;45.990;18.688;2023-06-24T14:04:52;0.75;;;0.60;;
75297;SDS011;63896;45.990;18.688;2023-06-24T14:07:55;1.48;;;0.60;;
75297;SDS011;63896;45.990;18.688;2023-06-24T14:10:58;2.00;;;0.40;;
75297;SDS011;63896;45.990;18.688;2023-06-24T14:14:01;0.40;;;0.40;;
75297;SDS011;63896;45.990;18.688;2023-06-24T14:17:05;0.50;;;0.50;;
75297;SDS011;63896;45.990;18.688;2023-06-24T14:20:12;2.63;;;0.70;;
75297;SDS011;63896;45.990;18.688;2023-06-24T14:23:15;0.88;;;0.50;;
75297;SDS011;63896;45.990;18.688;2023-06-24T14:26:17;0.40;;;0.40;;
75297;SDS011;63896;45.990;18.688;2023-06-24T14:29:20;0.57;;;0.57;;
75297;SDS011;63896;45.990;18.688;2023-06-24T14:32:23;0.93;;;0.35;;
75297;SDS011;63896;45.990;18.688;2023-06-24T14:35:28;0.85;;;0.50;;
75297;SDS011;63896;45.990;18.688;2023-06-24T14:38:31;0.55;;;0.55;;
75297;SDS011;63896;45.990;18.688;2023-06-24T14:41:34;2.40;;;0.50;;
75297;SDS011;63896;45.990;18.688;2023-06-24T14:44:37;1.65;;;0.30;;
75297;SDS011;63896;45.990;18.688;2023-06-24T14:47:40;0.55;;;0.50;;
75297;SDS011;63896;45.990;18.688;2023-06-24T14:50:42;0.50;;;0.50;;
75297;SDS011;63896;45.990;18.688;2023-06-24T14:53:45;0.50;;;0.50;;
75297;SDS011;63896;45.990;18.688;2023-06-24T14:56:48;0.20;;;0.20;;
75297;SDS011;63896;45.990;18.688;2023-06-24T14:59:51;0.52;;;0.28;;
75297;SDS011;63896;45.990;18.688;2023-06-24T15:02:54;0.30;;;0.30;;
75297;SDS011;63896;45.990;18.688;2023-06-24T15:05:57;0.30;;;0.30;;
75297;SDS011;63896;45.990;18.688;2023-06-24T15:08:59;0.50;;;0.47;;
75297;SDS011;63896;45.990;18.688;2023-06-24T15:12:02;0.50;;;0.50;;
75297;SDS011;63896;45.990;18.688;2023-06-24T15:15:05;0.52;;;0.50;;
75297;SDS011;63896;45.990;18.688;2023-06-24T15:18:08;0.60;;;0.20;;
75297;SDS011;63896;45.990;18.688;2023-06-24T15:21:11;0.50;;;0.50;;
75297;SDS011;63896;45.990;18.688;2023-06-24T15:24:34;0.60;;;0.40;;
75297;SDS011;63896;45.990;18.688;2023-06-24T15:27:37;0.30;;;0.30;;
75297;SDS011;63896;45.990;18.688;2023-06-24T15:30:39;1.20;;;0.30;;
75297;SDS011;63896;45.990;18.688;2023-06-24T15:33:42;1.80;;;0.30;;
75297;SDS011;63896;45.990;18.688;2023-06-24T15:36:45;0.45;;;0.40;;
75297;SDS011;63896;45.990;18.688;2023-06-24T15:39:48;1.38;;;0.50;;
75297;SDS011;63896;45.990;18.688;2023-06-24T15:42:50;1.13;;;0.60;;
75297;SDS011;63896;45.990;18.688;2023-06-24T15:45:53;0.20;;;0.20;;
75297;SDS011;63896;45.990;18.688;2023-06-24T15:48:56;1.55;;;0.40;;
75297;SDS011;63896;45.990;18.688;2023-06-24T15:51:59;1.40;;;0.40;;
75297;SDS011;63896;45.990;18.688;2023-06-24T15:55:02;0.47;;;0.32;;
75297;SDS011;63896;45.990;18.688;2023-06-24T15:58:05;0.50;;;0.50;;
75297;SDS011;63896;45.990;18.688;2023-06-24T16:01:08;0.60;;;0.43;;
75297;SDS011;63896;45.990;18.688;2023-06-24T16:04:11;0.73;;;0.65;;
75297;SDS011;63896;45.990;18.688;2023-06-24T16:07:13;2.83;;;0.40;;
75297;SDS011;63896;45.990;18.688;2023-06-24T16:10:16;1.25;;;0.45;;
75297;SDS011;63896;45.990;18.688;2023-06-24T16:13:19;0.97;;;0.70;;
75297;SDS011;63896;45.990;18.688;2023-06-24T16:16:22;0.80;;;0.60;;
75297;SDS011;63896;45.990;18.688;2023-06-24T16:19:27;0.90;;;0.70;;
75297;SDS011;63896;45.990;18.688;2023-06-24T16:22:30;0.57;;;0.57;;
75297;SDS011;63896;45.990;18.688;2023-06-24T16:25:33;1.77;;;0.70;;
75297;SDS011;63896;45.990;18.688;2023-06-24T16:28:36;0.53;;;0.47;;
75297;SDS011;63896;45.990;18.688;2023-06-24T16:31:39;0.68;;;0.68;;
75297;SDS011;63896;45.990;18.688;2023-06-24T16:34:42;1.20;;;0.50;;
75297;SDS011;63896;45.990;18.688;2023-06-24T16:37:44;0.50;;;0.50;;
75297;SDS011;63896;45.990;18.688;2023-06-24T16:40:47;0.80;;;0.80;;
75297;SDS011;63896;45.990;18.688;2023-06-24T16:43:50;1.27;;;0.73;;
75297;SDS011;63896;45.990;18.688;2023-06-24T16:46:53;0.77;;;0.60;;
75297;SDS011;63896;45.990;18.688;2023-06-24T16:49:56;1.13;;;0.80;;
75297;SDS011;63896;45.990;18.688;2023-06-24T16:52:58;1.75;;;0.80;;
75297;SDS011;63896;45.990;18.688;2023-06-24T16:56:01;2.13;;;0.60;;
75297;SDS011;63896;45.990;18.688;2023-06-24T16:59:04;2.03;;;0.80;;
75297;SDS011;63896;45.990;18.688;2023-06-24T17:02:07;1.02;;;0.95;;
75297;SDS011;63896;45.990;18.688;2023-06-24T17:05:09;0.75;;;0.70;;
75297;SDS011;63896;45.990;18.688;2023-06-24T17:08:12;1.20;;;0.88;;
75297;SDS011;63896;45.990;18.688;2023-06-24T17:11:15;0.95;;;0.85;;
75297;SDS011;63896;45.990;18.688;2023-06-24T17:14:18;0.83;;;0.83;;
75297;SDS011;63896;45.990;18.688;2023-06-24T17:17:21;1.38;;;1.20;;
75297;SDS011;63896;45.990;18.688;2023-06-24T17:20:24;1.20;;;0.98;;
75297;SDS011;63896;45.990;18.688;2023-06-24T17:23:26;5.45;;;1.25;;
75297;SDS011;63896;45.990;18.688;2023-06-24T17:26:31;0.75;;;0.75;;
75297;SDS011;63896;45.990;18.688;2023-06-24T17:29:35;1.97;;;1.20;;
75297;SDS011;63896;45.990;18.688;2023-06-24T17:32:38;1.65;;;1.02;;
75297;SDS011;63896;45.990;18.688;2023-06-24T17:35:42;1.20;;;1.10;;
75297;SDS011;63896;45.990;18.688;2023-06-24T17:38:45;1.17;;;1.08;;
75297;SDS011;63896;45.990;18.688;2023-06-24T17:41:48;1.30;;;1.15;;
75297;SDS011;63896;45.990;18.688;2023-06-24T17:44:50;1.17;;;1.10;;
75297;SDS011;63896;45.990;18.688;2023-06-24T17:47:53;1.20;;;1.10;;
75297;SDS011;63896;45.990;18.688;2023-06-24T17:50:56;3.83;;;1.00;;
75297;SDS011;63896;45.990;18.688;2023-06-24T17:53:59;1.20;;;1.10;;
75297;SDS011;63896;45.990;18.688;2023-06-24T17:57:01;1.45;;;1.35;;
75297;SDS011;63896;45.990;18.688;2023-06-24T18:00:05;1.97;;;1.17;;
75297;SDS011;63896;45.990;18.688;2023-06-24T18:03:08;1.20;;;1.10;;
75297;SDS011;63896;45.990;18.688;2023-06-24T18:06:11;2.45;;;1.20;;
75297;SDS011;63896;45.990;18.688;2023-06-24T18:09:14;2.30;;;1.13;;
75297;SDS011;63896;45.990;18.688;2023-06-24T18:12:19;1.40;;;1.30;;
75297;SDS011;63896;45.990;18.688;2023-06-24T18:15:21;1.77;;;1.17;;
75297;SDS011;63896;45.990;18.688;2023-06-24T18:18:24;1.42;;;1.23;;
75297;SDS011;63896;45.990;18.688;2023-06-24T18:21:27;1.50;;;1.17;;
75297;SDS011;63896;45.990;18.688;2023-06-24T18:24:35;1.65;;;1.20;;
75297;SDS011;63896;45.990;18.688;2023-06-24T18:27:38;1.95;;;1.40;;
75297;SDS011;63896;45.990;18.688;2023-06-24T18:30:44;2.53;;;1.40;;